sensor_id;sensor_type;location;lat;lon;timestamp;P1;durP1;ratioP1;P2;durP2;ratioP2
55589;SDS011;41452;42.780;23.116;2023-06-22T00:00:49;7.55;;;5.72;;
55589;SDS011;41452;42.780;23.116;2023-06-22T00:03:15;7.30;;;5.60;;
55589;SDS011;41452;42.780;23.116;2023-06-22T00:05:41;9.40;;;6.18;;
55589;SDS011;41452;42.780;23.116;2023-06-22T00:08:06;11.05;;;6.43;;
55589;SDS011;41452;42.780;23.116;2023-06-22T00:10:31;10.57;;;6.57;;
55589;SDS011;41452;42.780;23.116;2023-06-22T00:12:57;7.85;;;6.03;;
55589;SDS011;41452;42.780;23.116;2023-06-22T00:15:23;9.10;;;6.20;;
55589;SDS011;41452;42.780;23.116;2023-06-22T00:17:49;10.07;;;6.55;;
55589;SDS011;41452;42.780;23.116;2023-06-22T00:20:15;11.52;;;6.57;;
55589;SDS011;41452;42.780;23.116;2023-06-22T00:22:43;10.90;;;7.22;;
55589;SDS011;41452;42.780;23.116;2023-06-22T00:25:09;10.63;;;5.80;;
55589;SDS011;41452;42.780;23.116;2023-06-22T00:27:35;10.95;;;6.50;;
55589;SDS011;41452;42.780;23.116;2023-06-22T00:30:00;8.48;;;6.10;;
55589;SDS011;41452;42.780;23.116;2023-06-22T00:32:26;9.23;;;6.03;;
55589;SDS011;41452;42.780;23.116;2023-06-22T00:34:51;7.72;;;6.15;;
55589;SDS011;41452;42.780;23.116;2023-06-22T00:37:17;8.60;;;6.25;;
55589;SDS011;41452;42.780;23.116;2023-06-22T00:39:43;11.93;;;6.80;;
55589;SDS011;41452;42.780;23.116;2023-06-22T00:42:08;10.48;;;6.88;;
55589;SDS011;41452;42.780;23.116;2023-06-22T00:44:34;11.43;;;7.05;;
55589;SDS011;41452;42.780;23.116;2023-06-22T00:47:03;9.60;;;6.60;;
55589;SDS011;41452;42.780;23.116;2023-06-22T00:49:28;11.18;;;6.35;;
55589;SDS011;41452;42.780;23.116;2023-06-22T00:51:54;8.13;;;6.05;;
55589;SDS011;41452;42.780;23.116;2023-06-22T00:54:20;9.68;;;6.35;;
55589;SDS011;41452;42.780;23.116;2023-06-22T00:56:58;10.93;;;6.35;;
55589;SDS011;41452;42.780;23.116;2023-06-22T01:01:51;11.25;;;7.18;;
55589;SDS011;41452;42.780;23.116;2023-06-22T01:04:16;10.65;;;6.88;;
55589;SDS011;41452;42.780;23.116;2023-06-22T01:06:58;29.13;;;9.82;;
55589;SDS011;41452;42.780;23.116;2023-06-22T01:09:40;22.08;;;9.80;;
55589;SDS011;41452;42.780;23.116;2023-06-22T01:12:14;12.98;;;6.78;;
55589;SDS011;41452;42.780;23.116;2023-06-22T01:14:43;10.32;;;6.03;;
55589;SDS011;41452;42.780;23.116;2023-06-22T01:17:26;12.07;;;6.05;;
55589;SDS011;41452;42.780;23.116;2023-06-22T01:19:54;12.70;;;6.35;;
55589;SDS011;41452;42.780;23.116;2023-06-22T01:22:22;10.70;;;6.38;;
55589;SDS011;41452;42.780;23.116;2023-06-22T01:30:15;11.20;;;6.15;;
55589;SDS011;41452;42.780;23.116;2023-06-22T01:32:43;9.60;;;6.60;;
55589;SDS011;41452;42.780;23.116;2023-06-22T01:35:09;9.77;;;6.35;;
55589;SDS011;41452;42.780;23.116;2023-06-22T01:37:36;13.68;;;7.43;;
55589;SDS011;41452;42.780;23.116;2023-06-22T01:40:02;18.08;;;8.02;;
55589;SDS011;41452;42.780;23.116;2023-06-22T01:42:30;20.13;;;8.50;;
55589;SDS011;41452;42.780;23.116;2023-06-22T01:44:56;13.85;;;7.40;;
55589;SDS011;41452;42.780;23.116;2023-06-22T01:47:23;11.90;;;7.05;;
55589;SDS011;41452;42.780;23.116;2023-06-22T01:49:50;9.75;;;7.13;;
55589;SDS011;41452;42.780;23.116;2023-06-22T01:52:18;13.75;;;8.07;;
55589;SDS011;41452;42.780;23.116;2023-06-22T01:54:46;13.15;;;7.15;;
55589;SDS011;41452;42.780;23.116;2023-06-22T01:57:12;10.73;;;6.30;;
55589;SDS011;41452;42.780;23.116;2023-06-22T01:59:39;10.35;;;6.72;;
55589;SDS011;41452;42.780;23.116;2023-06-22T02:02:16;9.55;;;5.85;;
55589;SDS011;41452;42.780;23.116;2023-06-22T02:07:17;18.70;;;8.02;;
55589;SDS011;41452;42.780;23.116;2023-06-22T02:09:46;14.15;;;7.65;;
55589;SDS011;41452;42.780;23.116;2023-06-22T02:12:16;27.27;;;11.45;;
55589;SDS011;41452;42.780;23.116;2023-06-22T02:14:44;8.23;;;6.47;;
55589;SDS011;41452;42.780;23.116;2023-06-22T02:17:12;12.82;;;7.20;;
55589;SDS011;41452;42.780;23.116;2023-06-22T02:19:40;9.07;;;6.90;;
55589;SDS011;41452;42.780;23.116;2023-06-22T02:22:06;14.95;;;7.30;;
55589;SDS011;41452;42.780;23.116;2023-06-22T02:24:31;10.02;;;6.47;;
55589;SDS011;41452;42.780;23.116;2023-06-22T02:26:58;13.50;;;7.10;;
55589;SDS011;41452;42.780;23.116;2023-06-22T02:29:24;9.45;;;6.53;;
55589;SDS011;41452;42.780;23.116;2023-06-22T02:31:50;10.85;;;7.03;;
55589;SDS011;41452;42.780;23.116;2023-06-22T02:34:15;9.98;;;6.75;;
55589;SDS011;41452;42.780;23.116;2023-06-22T02:36:44;8.60;;;6.15;;
55589;SDS011;41452;42.780;23.116;2023-06-22T02:39:25;11.60;;;6.60;;
55589;SDS011;41452;42.780;23.116;2023-06-22T02:41:51;10.57;;;6.35;;
55589;SDS011;41452;42.780;23.116;2023-06-22T02:56:49;13.25;;;7.10;;
55589;SDS011;41452;42.780;23.116;2023-06-22T02:59:15;11.88;;;6.85;;
55589;SDS011;41452;42.780;23.116;2023-06-22T03:01:41;10.25;;;6.75;;
55589;SDS011;41452;42.780;23.116;2023-06-22T03:04:07;13.23;;;7.43;;
55589;SDS011;41452;42.780;23.116;2023-06-22T03:06:33;11.25;;;6.90;;
55589;SDS011;41452;42.780;23.116;2023-06-22T03:08:59;8.85;;;6.18;;
55589;SDS011;41452;42.780;23.116;2023-06-22T03:11:28;9.85;;;6.50;;
55589;SDS011;41452;42.780;23.116;2023-06-22T03:13:54;9.50;;;7.05;;
55589;SDS011;41452;42.780;23.116;2023-06-22T03:16:19;11.75;;;6.68;;
55589;SDS011;41452;42.780;23.116;2023-06-22T03:18:45;11.32;;;7.43;;
55589;SDS011;41452;42.780;23.116;2023-06-22T03:21:10;10.98;;;7.22;;
55589;SDS011;41452;42.780;23.116;2023-06-22T03:23:36;10.55;;;6.47;;
55589;SDS011;41452;42.780;23.116;2023-06-22T03:26:01;15.20;;;7.20;;
55589;SDS011;41452;42.780;23.116;2023-06-22T03:28:27;9.50;;;6.75;;
55589;SDS011;41452;42.780;23.116;2023-06-22T03:30:52;8.63;;;6.32;;
55589;SDS011;41452;42.780;23.116;2023-06-22T03:33:18;8.77;;;6.90;;
55589;SDS011;41452;42.780;23.116;2023-06-22T03:35:43;9.60;;;6.55;;
55589;SDS011;41452;42.780;23.116;2023-06-22T03:38:09;10.07;;;7.00;;
55589;SDS011;41452;42.780;23.116;2023-06-22T03:40:34;9.70;;;6.30;;
55589;SDS011;41452;42.780;23.116;2023-06-22T03:42:59;9.75;;;6.88;;
55589;SDS011;41452;42.780;23.116;2023-06-22T03:45:25;12.32;;;7.38;;
55589;SDS011;41452;42.780;23.116;2023-06-22T03:47:50;12.38;;;7.25;;
55589;SDS011;41452;42.780;23.116;2023-06-22T03:50:15;11.90;;;7.18;;
55589;SDS011;41452;42.780;23.116;2023-06-22T03:52:41;13.50;;;7.88;;
55589;SDS011;41452;42.780;23.116;2023-06-22T03:55:06;12.43;;;7.93;;
55589;SDS011;41452;42.780;23.116;2023-06-22T03:57:32;10.38;;;8.00;;
55589;SDS011;41452;42.780;23.116;2023-06-22T03:59:58;10.65;;;8.00;;
55589;SDS011;41452;42.780;23.116;2023-06-22T04:02:23;12.13;;;7.57;;
55589;SDS011;41452;42.780;23.116;2023-06-22T04:07:30;11.68;;;7.63;;
55589;SDS011;41452;42.780;23.116;2023-06-22T04:09:55;13.68;;;7.43;;
55589;SDS011;41452;42.780;23.116;2023-06-22T04:12:21;9.80;;;7.43;;
55589;SDS011;41452;42.780;23.116;2023-06-22T04:14:46;13.35;;;8.18;;
55589;SDS011;41452;42.780;23.116;2023-06-22T04:17:11;11.40;;;8.40;;
55589;SDS011;41452;42.780;23.116;2023-06-22T04:19:39;12.43;;;8.18;;
55589;SDS011;41452;42.780;23.116;2023-06-22T04:22:04;14.18;;;8.68;;
55589;SDS011;41452;42.780;23.116;2023-06-22T04:24:32;11.93;;;8.27;;
55589;SDS011;41452;42.780;23.116;2023-06-22T04:26:57;12.98;;;8.95;;
55589;SDS011;41452;42.780;23.116;2023-06-22T04:29:25;13.43;;;9.48;;
55589;SDS011;41452;42.780;23.116;2023-06-22T04:31:53;14.73;;;8.60;;
55589;SDS011;41452;42.780;23.116;2023-06-22T04:34:21;13.10;;;9.18;;
55589;SDS011;41452;42.780;23.116;2023-06-22T04:36:46;15.02;;;9.73;;
55589;SDS011;41452;42.780;23.116;2023-06-22T04:39:11;14.60;;;10.05;;
55589;SDS011;41452;42.780;23.116;2023-06-22T04:41:38;14.10;;;9.68;;
55589;SDS011;41452;42.780;23.116;2023-06-22T04:44:13;15.32;;;9.15;;
55589;SDS011;41452;42.780;23.116;2023-06-22T04:46:58;18.83;;;11.15;;
55589;SDS011;41452;42.780;23.116;2023-06-22T04:49:27;17.02;;;11.38;;
55589;SDS011;41452;42.780;23.116;2023-06-22T04:52:05;15.75;;;10.80;;
55589;SDS011;41452;42.780;23.116;2023-06-22T04:54:32;19.95;;;12.25;;
55589;SDS011;41452;42.780;23.116;2023-06-22T04:57:02;22.27;;;14.57;;
55589;SDS011;41452;42.780;23.116;2023-06-22T04:59:30;20.50;;;12.38;;
55589;SDS011;41452;42.780;23.116;2023-06-22T05:01:56;16.80;;;12.88;;
55589;SDS011;41452;42.780;23.116;2023-06-22T05:04:26;17.35;;;13.30;;
55589;SDS011;41452;42.780;23.116;2023-06-22T05:06:53;17.95;;;13.13;;
55589;SDS011;41452;42.780;23.116;2023-06-22T05:09:19;18.73;;;11.90;;
55589;SDS011;41452;42.780;23.116;2023-06-22T05:11:45;19.33;;;13.60;;
55589;SDS011;41452;42.780;23.116;2023-06-22T05:14:11;17.15;;;13.13;;
55589;SDS011;41452;42.780;23.116;2023-06-22T05:16:37;18.85;;;12.70;;
55589;SDS011;41452;42.780;23.116;2023-06-22T05:19:03;15.90;;;12.02;;
55589;SDS011;41452;42.780;23.116;2023-06-22T05:21:29;16.65;;;11.48;;
55589;SDS011;41452;42.780;23.116;2023-06-22T05:23:56;20.13;;;11.27;;
55589;SDS011;41452;42.780;23.116;2023-06-22T05:26:27;17.60;;;11.07;;
55589;SDS011;41452;42.780;23.116;2023-06-22T05:28:53;17.88;;;11.00;;
55589;SDS011;41452;42.780;23.116;2023-06-22T05:31:19;14.52;;;11.30;;
55589;SDS011;41452;42.780;23.116;2023-06-22T05:33:45;16.05;;;11.50;;
55589;SDS011;41452;42.780;23.116;2023-06-22T05:36:11;16.05;;;11.27;;
55589;SDS011;41452;42.780;23.116;2023-06-22T05:38:38;21.02;;;13.70;;
55589;SDS011;41452;42.780;23.116;2023-06-22T05:41:04;24.05;;;13.63;;
55589;SDS011;41452;42.780;23.116;2023-06-22T05:43:29;24.08;;;12.35;;
55589;SDS011;41452;42.780;23.116;2023-06-22T05:45:55;22.98;;;14.18;;
55589;SDS011;41452;42.780;23.116;2023-06-22T05:48:20;18.33;;;13.10;;
55589;SDS011;41452;42.780;23.116;2023-06-22T05:50:46;26.40;;;12.55;;
55589;SDS011;41452;42.780;23.116;2023-06-22T05:53:11;20.33;;;15.48;;
55589;SDS011;41452;42.780;23.116;2023-06-22T05:55:37;20.30;;;13.75;;
55589;SDS011;41452;42.780;23.116;2023-06-22T05:58:02;21.55;;;13.23;;
55589;SDS011;41452;42.780;23.116;2023-06-22T06:00:30;20.35;;;15.88;;
55589;SDS011;41452;42.780;23.116;2023-06-22T06:02:56;22.02;;;15.10;;
55589;SDS011;41452;42.780;23.116;2023-06-22T06:05:21;27.13;;;15.38;;
55589;SDS011;41452;42.780;23.116;2023-06-22T06:07:48;25.83;;;15.48;;
55589;SDS011;41452;42.780;23.116;2023-06-22T06:10:14;19.75;;;14.73;;
55589;SDS011;41452;42.780;23.116;2023-06-22T06:12:39;23.70;;;14.30;;
55589;SDS011;41452;42.780;23.116;2023-06-22T06:15:05;28.42;;;15.75;;
55589;SDS011;41452;42.780;23.116;2023-06-22T06:17:30;25.02;;;14.30;;
55589;SDS011;41452;42.780;23.116;2023-06-22T06:19:56;27.65;;;14.93;;
55589;SDS011;41452;42.780;23.116;2023-06-22T06:45:06;20.60;;;14.37;;
55589;SDS011;41452;42.780;23.116;2023-06-22T06:47:36;21.23;;;15.88;;
55589;SDS011;41452;42.780;23.116;2023-06-22T06:50:01;20.35;;;15.75;;
55589;SDS011;41452;42.780;23.116;2023-06-22T06:52:29;22.10;;;15.27;;
55589;SDS011;41452;42.780;23.116;2023-06-22T06:54:54;18.90;;;15.45;;
55589;SDS011;41452;42.780;23.116;2023-06-22T06:57:20;24.08;;;15.52;;
55589;SDS011;41452;42.780;23.116;2023-06-22T06:59:45;22.73;;;16.10;;
55589;SDS011;41452;42.780;23.116;2023-06-22T07:02:11;22.38;;;14.73;;
55589;SDS011;41452;42.780;23.116;2023-06-22T07:04:36;19.98;;;13.50;;
55589;SDS011;41452;42.780;23.116;2023-06-22T07:07:02;15.93;;;13.30;;
55589;SDS011;41452;42.780;23.116;2023-06-22T07:09:28;17.30;;;13.40;;
55589;SDS011;41452;42.780;23.116;2023-06-22T07:11:53;14.63;;;11.77;;
55589;SDS011;41452;42.780;23.116;2023-06-22T07:14:18;16.40;;;12.25;;
55589;SDS011;41452;42.780;23.116;2023-06-22T07:16:44;14.88;;;11.27;;
55589;SDS011;41452;42.780;23.116;2023-06-22T07:19:11;14.32;;;11.52;;
55589;SDS011;41452;42.780;23.116;2023-06-22T07:21:37;15.60;;;11.48;;
55589;SDS011;41452;42.780;23.116;2023-06-22T07:24:04;14.85;;;11.15;;
55589;SDS011;41452;42.780;23.116;2023-06-22T07:26:30;14.98;;;10.90;;
55589;SDS011;41452;42.780;23.116;2023-06-22T07:28:56;12.13;;;10.13;;
55589;SDS011;41452;42.780;23.116;2023-06-22T07:31:23;12.90;;;10.38;;
55589;SDS011;41452;42.780;23.116;2023-06-22T07:33:49;14.57;;;11.32;;
55589;SDS011;41452;42.780;23.116;2023-06-22T07:36:14;14.32;;;11.10;;
55589;SDS011;41452;42.780;23.116;2023-06-22T07:38:40;14.20;;;10.27;;
55589;SDS011;41452;42.780;23.116;2023-06-22T07:41:05;13.20;;;10.77;;
55589;SDS011;41452;42.780;23.116;2023-06-22T07:43:31;12.88;;;10.73;;
55589;SDS011;41452;42.780;23.116;2023-06-22T07:45:58;13.55;;;10.88;;
55589;SDS011;41452;42.780;23.116;2023-06-22T07:48:23;12.07;;;10.15;;
55589;SDS011;41452;42.780;23.116;2023-06-22T07:50:49;13.57;;;11.05;;
55589;SDS011;41452;42.780;23.116;2023-06-22T07:53:14;15.40;;;10.98;;
55589;SDS011;41452;42.780;23.116;2023-06-22T07:55:40;11.80;;;9.73;;
55589;SDS011;41452;42.780;23.116;2023-06-22T07:58:05;12.38;;;10.43;;
55589;SDS011;41452;42.780;23.116;2023-06-22T08:00:31;11.80;;;10.02;;
55589;SDS011;41452;42.780;23.116;2023-06-22T08:02:58;11.63;;;9.43;;
55589;SDS011;41452;42.780;23.116;2023-06-22T08:05:23;10.80;;;9.15;;
55589;SDS011;41452;42.780;23.116;2023-06-22T08:07:49;11.73;;;9.38;;
55589;SDS011;41452;42.780;23.116;2023-06-22T08:10:14;12.32;;;9.15;;
55589;SDS011;41452;42.780;23.116;2023-06-22T08:12:40;13.45;;;9.90;;
55589;SDS011;41452;42.780;23.116;2023-06-22T08:15:06;10.98;;;8.52;;
55589;SDS011;41452;42.780;23.116;2023-06-22T08:17:32;11.00;;;9.15;;
55589;SDS011;41452;42.780;23.116;2023-06-22T08:19:58;12.10;;;8.77;;
55589;SDS011;41452;42.780;23.116;2023-06-22T08:22:23;10.88;;;9.27;;
55589;SDS011;41452;42.780;23.116;2023-06-22T08:24:49;11.38;;;8.85;;
55589;SDS011;41452;42.780;23.116;2023-06-22T08:27:14;9.73;;;7.95;;
55589;SDS011;41452;42.780;23.116;2023-06-22T08:29:42;11.50;;;8.57;;
55589;SDS011;41452;42.780;23.116;2023-06-22T08:32:08;13.20;;;8.90;;
55589;SDS011;41452;42.780;23.116;2023-06-22T08:34:34;22.65;;;9.13;;
55589;SDS011;41452;42.780;23.116;2023-06-22T08:37:00;13.73;;;8.50;;
55589;SDS011;41452;42.780;23.116;2023-06-22T08:39:25;13.15;;;8.32;;
55589;SDS011;41452;42.780;23.116;2023-06-22T08:41:52;12.18;;;8.23;;
55589;SDS011;41452;42.780;23.116;2023-06-22T08:44:18;11.23;;;8.07;;
55589;SDS011;41452;42.780;23.116;2023-06-22T08:46:44;17.50;;;8.13;;
55589;SDS011;41452;42.780;23.116;2023-06-22T08:49:10;9.00;;;7.75;;
55589;SDS011;41452;42.780;23.116;2023-06-22T08:51:35;9.95;;;8.15;;
55589;SDS011;41452;42.780;23.116;2023-06-22T08:54:01;13.35;;;8.18;;
55589;SDS011;41452;42.780;23.116;2023-06-22T08:56:26;12.68;;;8.38;;
55589;SDS011;41452;42.780;23.116;2023-06-22T08:58:51;10.98;;;8.40;;
55589;SDS011;41452;42.780;23.116;2023-06-22T09:01:17;9.35;;;7.82;;
55589;SDS011;41452;42.780;23.116;2023-06-22T09:03:42;10.50;;;7.97;;
55589;SDS011;41452;42.780;23.116;2023-06-22T09:06:08;9.70;;;8.05;;
55589;SDS011;41452;42.780;23.116;2023-06-22T09:08:34;10.70;;;7.75;;
55589;SDS011;41452;42.780;23.116;2023-06-22T09:11:00;9.38;;;7.55;;
55589;SDS011;41452;42.780;23.116;2023-06-22T09:13:26;11.63;;;8.27;;
55589;SDS011;41452;42.780;23.116;2023-06-22T09:15:52;9.23;;;7.35;;
55589;SDS011;41452;42.780;23.116;2023-06-22T09:18:18;11.98;;;7.47;;
55589;SDS011;41452;42.780;23.116;2023-06-22T09:20:44;9.27;;;7.30;;
55589;SDS011;41452;42.780;23.116;2023-06-22T09:23:10;9.85;;;7.57;;
55589;SDS011;41452;42.780;23.116;2023-06-22T09:28:57;8.50;;;6.40;;
55589;SDS011;41452;42.780;23.116;2023-06-22T09:31:40;9.00;;;7.05;;
55589;SDS011;41452;42.780;23.116;2023-06-22T09:34:06;12.98;;;7.22;;
55589;SDS011;41452;42.780;23.116;2023-06-22T09:36:31;9.02;;;6.13;;
55589;SDS011;41452;42.780;23.116;2023-06-22T09:38:57;8.80;;;6.63;;
55589;SDS011;41452;42.780;23.116;2023-06-22T09:41:23;9.38;;;6.25;;
55589;SDS011;41452;42.780;23.116;2023-06-22T09:43:50;9.13;;;6.53;;
55589;SDS011;41452;42.780;23.116;2023-06-22T09:46:15;8.63;;;6.32;;
55589;SDS011;41452;42.780;23.116;2023-06-22T09:48:41;9.32;;;6.50;;
55589;SDS011;41452;42.780;23.116;2023-06-22T09:51:06;9.13;;;6.60;;
55589;SDS011;41452;42.780;23.116;2023-06-22T09:53:32;12.90;;;6.43;;
55589;SDS011;41452;42.780;23.116;2023-06-22T09:55:59;9.65;;;5.95;;
55589;SDS011;41452;42.780;23.116;2023-06-22T09:58:25;8.57;;;6.47;;
55589;SDS011;41452;42.780;23.116;2023-06-22T10:00:50;8.57;;;6.43;;
55589;SDS011;41452;42.780;23.116;2023-06-22T10:03:16;10.95;;;6.60;;
55589;SDS011;41452;42.780;23.116;2023-06-22T10:05:41;7.40;;;6.00;;
55589;SDS011;41452;42.780;23.116;2023-06-22T10:08:06;9.57;;;7.20;;
55589;SDS011;41452;42.780;23.116;2023-06-22T10:10:34;8.68;;;6.80;;
55589;SDS011;41452;42.780;23.116;2023-06-22T10:13:02;8.15;;;6.70;;
55589;SDS011;41452;42.780;23.116;2023-06-22T10:17:59;9.33;;;6.63;;
55589;SDS011;41452;42.780;23.116;2023-06-22T10:20:24;8.90;;;6.53;;
55589;SDS011;41452;42.780;23.116;2023-06-22T10:22:51;9.50;;;6.97;;
55589;SDS011;41452;42.780;23.116;2023-06-22T10:25:16;9.52;;;6.47;;
55589;SDS011;41452;42.780;23.116;2023-06-22T10:27:41;9.00;;;6.60;;
55589;SDS011;41452;42.780;23.116;2023-06-22T10:30:07;7.22;;;6.18;;
55589;SDS011;41452;42.780;23.116;2023-06-22T10:32:34;7.78;;;6.88;;
55589;SDS011;41452;42.780;23.116;2023-06-22T10:34:59;11.75;;;7.88;;
55589;SDS011;41452;42.780;23.116;2023-06-22T10:37:25;8.85;;;6.47;;
55589;SDS011;41452;42.780;23.116;2023-06-22T10:39:50;11.38;;;6.50;;
55589;SDS011;41452;42.780;23.116;2023-06-22T10:42:15;8.43;;;6.50;;
55589;SDS011;41452;42.780;23.116;2023-06-22T10:44:41;7.65;;;6.43;;
55589;SDS011;41452;42.780;23.116;2023-06-22T10:47:09;7.85;;;6.68;;
55589;SDS011;41452;42.780;23.116;2023-06-22T10:49:34;9.23;;;7.13;;
55589;SDS011;41452;42.780;23.116;2023-06-22T10:52:00;10.07;;;6.50;;
55589;SDS011;41452;42.780;23.116;2023-06-22T10:54:25;7.18;;;6.47;;
55589;SDS011;41452;42.780;23.116;2023-06-22T10:56:51;10.20;;;7.25;;
55589;SDS011;41452;42.780;23.116;2023-06-22T10:59:16;10.60;;;7.25;;
55589;SDS011;41452;42.780;23.116;2023-06-22T11:01:41;9.63;;;6.90;;
55589;SDS011;41452;42.780;23.116;2023-06-22T11:04:07;9.02;;;7.18;;
55589;SDS011;41452;42.780;23.116;2023-06-22T11:06:32;10.63;;;7.07;;
55589;SDS011;41452;42.780;23.116;2023-06-22T11:08:58;10.00;;;7.03;;
55589;SDS011;41452;42.780;23.116;2023-06-22T11:11:23;9.30;;;7.00;;
55589;SDS011;41452;42.780;23.116;2023-06-22T11:13:50;9.07;;;6.97;;
55589;SDS011;41452;42.780;23.116;2023-06-22T11:16:15;7.90;;;6.57;;
55589;SDS011;41452;42.780;23.116;2023-06-22T11:18:41;8.23;;;6.70;;
55589;SDS011;41452;42.780;23.116;2023-06-22T11:21:06;10.00;;;7.28;;
55589;SDS011;41452;42.780;23.116;2023-06-22T11:23:32;8.25;;;6.93;;
55589;SDS011;41452;42.780;23.116;2023-06-22T11:25:57;8.02;;;6.80;;
55589;SDS011;41452;42.780;23.116;2023-06-22T11:28:22;7.40;;;6.40;;
55589;SDS011;41452;42.780;23.116;2023-06-22T11:30:48;9.80;;;7.10;;
55589;SDS011;41452;42.780;23.116;2023-06-22T11:33:14;8.20;;;6.70;;
55589;SDS011;41452;42.780;23.116;2023-06-22T11:35:40;8.63;;;6.63;;
55589;SDS011;41452;42.780;23.116;2023-06-22T11:38:05;8.25;;;7.22;;
55589;SDS011;41452;42.780;23.116;2023-06-22T11:40:30;10.68;;;7.50;;
55589;SDS011;41452;42.780;23.116;2023-06-22T11:42:56;9.80;;;7.30;;
55589;SDS011;41452;42.780;23.116;2023-06-22T11:45:21;8.93;;;7.15;;
55589;SDS011;41452;42.780;23.116;2023-06-22T11:47:47;9.82;;;7.20;;
55589;SDS011;41452;42.780;23.116;2023-06-22T11:50:12;7.63;;;6.82;;
55589;SDS011;41452;42.780;23.116;2023-06-22T11:52:38;7.93;;;6.47;;
55589;SDS011;41452;42.780;23.116;2023-06-22T11:55:03;8.40;;;6.35;;
55589;SDS011;41452;42.780;23.116;2023-06-22T11:57:32;7.85;;;6.88;;
55589;SDS011;41452;42.780;23.116;2023-06-22T11:59:59;9.40;;;6.57;;
55589;SDS011;41452;42.780;23.116;2023-06-22T12:02:24;8.05;;;6.47;;
55589;SDS011;41452;42.780;23.116;2023-06-22T12:04:50;7.63;;;6.60;;
55589;SDS011;41452;42.780;23.116;2023-06-22T12:07:17;7.18;;;6.30;;
55589;SDS011;41452;42.780;23.116;2023-06-22T12:09:43;9.70;;;7.05;;
55589;SDS011;41452;42.780;23.116;2023-06-22T12:12:09;9.57;;;6.82;;
55589;SDS011;41452;42.780;23.116;2023-06-22T12:26:33;5.50;;;4.25;;
55589;SDS011;41452;42.780;23.116;2023-06-22T12:28:58;6.75;;;2.80;;
55589;SDS011;41452;42.780;23.116;2023-06-22T12:43:53;4.47;;;3.25;;
55589;SDS011;41452;42.780;23.116;2023-06-22T12:46:19;7.65;;;3.65;;
55589;SDS011;41452;42.780;23.116;2023-06-22T12:48:44;5.70;;;3.38;;
55589;SDS011;41452;42.780;23.116;2023-06-22T12:51:09;9.85;;;3.28;;
55589;SDS011;41452;42.780;23.116;2023-06-22T12:53:35;7.10;;;3.70;;
55589;SDS011;41452;42.780;23.116;2023-06-22T12:56:00;8.27;;;4.30;;
55589;SDS011;41452;42.780;23.116;2023-06-22T12:58:26;7.82;;;4.70;;
55589;SDS011;41452;42.780;23.116;2023-06-22T13:00:51;12.18;;;5.88;;
55589;SDS011;41452;42.780;23.116;2023-06-22T13:03:17;15.40;;;6.25;;
55589;SDS011;41452;42.780;23.116;2023-06-22T13:05:42;6.25;;;4.45;;
55589;SDS011;41452;42.780;23.116;2023-06-22T13:08:07;8.15;;;4.78;;
55589;SDS011;41452;42.780;23.116;2023-06-22T13:10:33;5.50;;;3.83;;
55589;SDS011;41452;42.780;23.116;2023-06-22T13:12:58;6.22;;;3.55;;
55589;SDS011;41452;42.780;23.116;2023-06-22T13:15:28;6.43;;;3.90;;
55589;SDS011;41452;42.780;23.116;2023-06-22T13:17:55;8.23;;;5.35;;
55589;SDS011;41452;42.780;23.116;2023-06-22T13:20:20;12.10;;;4.55;;
55589;SDS011;41452;42.780;23.116;2023-06-22T13:22:46;19.83;;;6.32;;
55589;SDS011;41452;42.780;23.116;2023-06-22T14:07:52;10.95;;;5.18;;
55589;SDS011;41452;42.780;23.116;2023-06-22T14:10:18;11.55;;;5.82;;
55589;SDS011;41452;42.780;23.116;2023-06-22T14:12:43;9.55;;;5.68;;
55589;SDS011;41452;42.780;23.116;2023-06-22T14:15:09;12.38;;;5.25;;
55589;SDS011;41452;42.780;23.116;2023-06-22T14:17:35;9.05;;;5.85;;
55589;SDS011;41452;42.780;23.116;2023-06-22T14:20:00;7.45;;;5.03;;
55589;SDS011;41452;42.780;23.116;2023-06-22T14:22:26;11.65;;;5.15;;
55589;SDS011;41452;42.780;23.116;2023-06-22T14:24:54;12.32;;;6.63;;
55589;SDS011;41452;42.780;23.116;2023-06-22T14:27:20;14.20;;;7.60;;
55589;SDS011;41452;42.780;23.116;2023-06-22T14:29:46;16.02;;;7.93;;
55589;SDS011;41452;42.780;23.116;2023-06-22T14:32:11;19.13;;;7.95;;
55589;SDS011;41452;42.780;23.116;2023-06-22T14:34:37;17.23;;;8.32;;
55589;SDS011;41452;42.780;23.116;2023-06-22T14:37:05;16.10;;;7.35;;
55589;SDS011;41452;42.780;23.116;2023-06-22T14:39:34;10.23;;;6.63;;
55589;SDS011;41452;42.780;23.116;2023-06-22T14:42:00;10.82;;;6.88;;
55589;SDS011;41452;42.780;23.116;2023-06-22T14:44:26;11.07;;;6.57;;
55589;SDS011;41452;42.780;23.116;2023-06-22T14:46:54;11.27;;;7.07;;
55589;SDS011;41452;42.780;23.116;2023-06-22T14:49:19;13.88;;;7.72;;
55589;SDS011;41452;42.780;23.116;2023-06-22T15:03:34;12.85;;;7.50;;
55589;SDS011;41452;42.780;23.116;2023-06-22T15:06:00;12.85;;;7.30;;
55589;SDS011;41452;42.780;23.116;2023-06-22T15:08:26;10.95;;;7.07;;
55589;SDS011;41452;42.780;23.116;2023-06-22T15:10:52;13.77;;;7.22;;
55589;SDS011;41452;42.780;23.116;2023-06-22T15:13:18;11.32;;;7.15;;
55589;SDS011;41452;42.780;23.116;2023-06-22T15:15:47;11.85;;;7.75;;
55589;SDS011;41452;42.780;23.116;2023-06-22T15:18:13;11.13;;;7.05;;
55589;SDS011;41452;42.780;23.116;2023-06-22T15:20:39;11.82;;;7.95;;
55589;SDS011;41452;42.780;23.116;2023-06-22T15:23:05;11.23;;;6.43;;
55589;SDS011;41452;42.780;23.116;2023-06-22T15:25:31;10.48;;;7.07;;
55589;SDS011;41452;42.780;23.116;2023-06-22T15:27:57;12.50;;;9.07;;
55589;SDS011;41452;42.780;23.116;2023-06-22T15:30:22;12.68;;;7.82;;
55589;SDS011;41452;42.780;23.116;2023-06-22T15:32:48;12.52;;;8.15;;
55589;SDS011;41452;42.780;23.116;2023-06-22T15:35:14;9.70;;;7.07;;
55589;SDS011;41452;42.780;23.116;2023-06-22T15:37:42;11.02;;;7.40;;
55589;SDS011;41452;42.780;23.116;2023-06-22T15:40:07;11.38;;;6.88;;
55589;SDS011;41452;42.780;23.116;2023-06-22T15:42:33;12.93;;;7.38;;
55589;SDS011;41452;42.780;23.116;2023-06-22T15:44:59;10.23;;;6.30;;
55589;SDS011;41452;42.780;23.116;2023-06-22T15:47:24;13.40;;;7.38;;
55589;SDS011;41452;42.780;23.116;2023-06-22T15:49:49;10.70;;;7.40;;
55589;SDS011;41452;42.780;23.116;2023-06-22T15:52:15;11.80;;;7.22;;
55589;SDS011;41452;42.780;23.116;2023-06-22T15:54:43;11.27;;;7.53;;
55589;SDS011;41452;42.780;23.116;2023-06-22T15:57:09;12.02;;;7.60;;
55589;SDS011;41452;42.780;23.116;2023-06-22T15:59:38;11.85;;;7.07;;
55589;SDS011;41452;42.780;23.116;2023-06-22T16:02:04;9.68;;;6.85;;
55589;SDS011;41452;42.780;23.116;2023-06-22T16:04:30;9.13;;;6.45;;
55589;SDS011;41452;42.780;23.116;2023-06-22T16:06:55;12.38;;;6.97;;
55589;SDS011;41452;42.780;23.116;2023-06-22T16:09:21;8.75;;;6.35;;
55589;SDS011;41452;42.780;23.116;2023-06-22T16:11:47;7.28;;;5.63;;
55589;SDS011;41452;42.780;23.116;2023-06-22T16:14:12;9.65;;;6.18;;
55589;SDS011;41452;42.780;23.116;2023-06-22T16:16:38;11.43;;;6.40;;
55589;SDS011;41452;42.780;23.116;2023-06-22T16:19:03;10.77;;;6.75;;
55589;SDS011;41452;42.780;23.116;2023-06-22T16:21:29;12.32;;;6.60;;
55589;SDS011;41452;42.780;23.116;2023-06-22T16:23:54;10.02;;;6.65;;
55589;SDS011;41452;42.780;23.116;2023-06-22T16:26:19;9.80;;;6.65;;
55589;SDS011;41452;42.780;23.116;2023-06-22T16:28:45;9.00;;;6.45;;
55589;SDS011;41452;42.780;23.116;2023-06-22T16:31:10;10.00;;;5.95;;